Wednesday, January 17, 2018, 9:56 AM EST
Back to Local

KBGM, Binghamton Regional Airport

Location: Johnson City, NY, United States Lat: 42.2
Local Time: 9:56 AM EST (14:56 GMT) Lon: -75.983
Time Zone: US/Eastern Elev: 1637 ft

Show me the last for .
Show Decoded

2018-01-17 09:40 METAR KBGM 171440Z 30010KT 1SM -SN BR FEW015 BKN021 OVC027 M11/M13 A3027 RMK AO2
                 SFC VIS 1 1/2 P0001 T11061128 =
2018-01-17 09:05 METAR KBGM 171405Z 30008KT 1/2SM SN FZFG FEW008 SCT011 OVC024 M10/M12 A3027 RMK
                 AO2 P0001 T11001117 =
2018-01-17 08:53 METAR KBGM 171353Z 31008KT 3/4SM -SN BR BKN009 OVC022 M10/M12 A3026 RMK AO2
                 SLP276 P0000 T11001117 =
2018-01-17 08:43 METAR KBGM 171343Z 31006KT 3/4SM -SN BR BKN009 OVC022 M10/M12 A3027 RMK AO2
                 P0000 T11001117 =
2018-01-17 08:25 METAR KBGM 171325Z 32006KT 1 1/2SM -SN BR BKN010 OVC020 M10/M12 A3027 RMK AO2
                 P0000 T11001117 =
2018-01-17 08:12 METAR KBGM 171312Z 33009KT 2 1/2SM -SN BR BKN012 OVC020 M10/M12 A3026 RMK AO2
                 P0000 T11001117 =
2018-01-17 07:53 METAR KBGM 171253Z 31007KT 4SM -SN BR OVC019 M10/M12 A3027 RMK AO2 SLP277 P0000
                 T11001117 =
2018-01-17 07:23 METAR KBGM 171223Z 33010KT 3SM -SN BR OVC016 M09/M12 A3026 RMK AO2 P0000
                 T10941117 =
2018-01-17 07:08 METAR KBGM 171208Z 32010KT 3SM -SN BR OVC014 M09/M11 A3025 RMK AO2 P0000
                 T10941111 =
2018-01-17 06:53 METAR KBGM 171153Z 32010KT 2 1/2SM -SN BR OVC012 M09/M11 A3024 RMK AO2 SLP269
                 P0000 60003 70033 T10941111 11044 21094 53006 =
2018-01-17 06:27 METAR KBGM 171127Z 33013KT 2 1/2SM -SN BR OVC010 M08/M10 A3024 RMK AO2 CIG
                 005V014 P0000 T10831100 =
2018-01-17 06:18 METAR KBGM 171118Z 33012KT 2 1/2SM -SN BR BKN007 OVC010 M08/M09 A3024 RMK AO2
                 CIG 003V009 P0000 T10781089 =
2018-01-17 06:08 METAR KBGM 171108Z 32010KT 1SM -SN BR OVC006 M07/M08 A3024 RMK AO2 SFC VIS 2 1/2
                 CIG 003V010 P0000 T10721083 =
2018-01-17 06:01 METAR KBGM 171101Z AUTO 33010KT 1SM -SN BR OVC004 M07/M07 A3024 RMK AO2 SFC VIS
                 2 CIG 003V008 P0000 T10671072 =
2018-01-17 05:53 METAR KBGM 171053Z AUTO 33009KT 1SM -SN BR OVC005 M06/M07 A3023 RMK AO2 SFC VIS
                 1 3/4 CIG 003V007 SLP263 P0001 T10561067 =
2018-01-17 05:13 METAR KBGM 171013Z AUTO 28005KT 1SM -SN BR BKN005 OVC018 M05/M06 A3023 RMK AO2
                 SFC VIS 1 1/2 P0000 T10501061 =
2018-01-17 05:01 METAR KBGM 171001Z AUTO 27004KT 1SM -SN BR SCT004 BKN014 OVC021 M04/M06 A3022
                 RMK AO2 SFC VIS 1 3/4 P0000 T10441056 =
2018-01-17 04:53 METAR KBGM 170953Z AUTO 27003KT 1SM -SN BR FEW009 BKN016 OVC021 M04/M06 A3022
                 RMK AO2 SFC VIS 1 3/4 SLP258 P0001 T10441056 =
2018-01-17 04:32 METAR KBGM 170932Z AUTO 00000KT 1SM -SN BR FEW009 SCT018 OVC027 M05/M06 A3022
                 RMK AO2 SFC VIS 1 3/4 P0001 T10501056 =
2018-01-17 04:14 METAR KBGM 170914Z AUTO 00000KT 1SM -SN BR OVC029 M04/M06 A3022 RMK AO2 SFC VIS
                 2 P0001 T10441056 =
2018-01-17 03:53 METAR KBGM 170853Z AUTO 00000KT 1SM -SN BR OVC035 M04/M05 A3023 RMK AO2 SFC VIS
                 2 SLP258 P0000 60001 T10441050 58005 =
2018-01-17 02:53 METAR KBGM 170753Z AUTO 00000KT 1SM -SN BR OVC033 M04/M05 A3024 RMK AO2 SFC VIS
                 2 SLP264 P0001 T10441050 =
2018-01-17 02:34 METAR KBGM 170734Z AUTO 00000KT 1SM -SN BR OVC028 M04/M05 A3023 RMK AO2 SFC VIS
                 1 3/4 P0000 T10441050 =
2018-01-17 01:53 METAR KBGM 170653Z AUTO 00000KT 1SM -SN BR OVC038 M04/M05 A3024 RMK AO2 SFC VIS
                 1 3/4 SLP263 P0000 T10441050 =
2018-01-17 00:53 METAR KBGM 170553Z AUTO 00000KT 1SM -SN BR OVC055 M04/M06 A3024 RMK AO2 SFC VIS
                 2 1/2 SLP265 P0000 60009 T10441056 11044 21044 58014 =
2018-01-16 23:53 METAR KBGM 170453Z 00000KT 1SM -SN BR OVC037 M04/M05 A3026 RMK AO2 SFC VIS 1 3/4
                 SLP270 P0001 T10441050 410391072 =
2018-01-16 23:15 METAR KBGM 170415Z 00000KT 1SM -SN BR OVC032 M04/M05 A3026 RMK AO2 SFC VIS 1 3/4
                 P0000 T10441050 =
2018-01-16 22:53 METAR KBGM 170353Z 00000KT 1SM -SN BR OVC024 M04/M05 A3027 RMK AO2 SFC VIS 1 3/4
                 SLP275 P0002 T10441050 =
2018-01-16 21:53 METAR KBGM 170253Z 00000KT 1SM -SN BR OVC018 M04/M05 A3028 RMK AO2 SFC VIS 1 1/4
                 SLP279 P0002 60006 T10441050 56003 =
2018-01-16 20:53 METAR KBGM 170153Z 00000KT 1SM -SN BR OVC019 M04/M05 A3029 RMK AO2 SFC VIS 1 1/4
                 SLP280 P0002 T10441050 =
2018-01-16 19:53 METAR KBGM 170053Z 00000KT 1SM -SN BR OVC018 M04/M05 A3029 RMK AO2 SFC VIS 1 1/4
                 SLP280 P0002 T10441050 =
2018-01-16 18:53 METAR KBGM 162353Z 00000KT 1SM -SN BR VV016 M04/M05 A3029 RMK AO2 SLP283 P0003
                 60014 T10441050 11039 21044 53002 =
2018-01-16 17:53 METAR KBGM 162253Z 00000KT 1SM -SN BR OVC024 M04/M05 A3028 RMK AO2 SFC VIS 1 1/2
                 SLP280 P0002 T10441050 =
2018-01-16 17:20 METAR KBGM 162220Z 00000KT 1SM -SN BR OVC019 M04/M05 A3028 RMK AO2 SFC VIS 1 1/2
                 P0001 T10441050 =
2018-01-16 16:53 METAR KBGM 162153Z 00000KT 3/4SM -SN BR FEW006 OVC017 M04/M06 A3029 RMK AO2
                 SLP281 P0002 T10391056 =
2018-01-16 16:22 METAR KBGM 162122Z 00000KT 3/4SM -SN BR SCT006 OVC021 M04/M06 A3029 RMK AO2 TWR
                 VIS 1 P0001 T10391056 =
2018-01-16 16:15 METAR KBGM 162115Z 00000KT 3/4SM -SN BR FEW010 OVC023 M04/M06 A3029 RMK AO2 TWR
                 VIS 1 P0001 T10391056 =
2018-01-16 15:53 METAR KBGM 162053Z 00000KT 1SM -SN BR FEW007 OVC028 M04/M06 A3029 RMK AO2 SLP281
                 P0002 60007 T10391056 58000 =
2018-01-16 15:31 METAR KBGM 162031Z 24003KT 1SM -SN BR SCT006 OVC025 M04/M05 A3029 RMK AO2 P0001
                 T10391050 =
2018-01-16 15:15 METAR KBGM 162015Z 25004KT 3/4SM -SN BR BKN006 OVC019 M04/M06 A3029 RMK AO2 TWR
                 VIS 1 P0001 T10441056 =
2018-01-16 15:08 METAR KBGM 162008Z 26004KT 1SM -SN BR BKN006 OVC021 M04/M06 A3029 RMK AO2 P0000
                 T10441056 =
2018-01-16 14:53 METAR KBGM 161953Z 23005KT 3/4SM -SN BR BKN006 OVC016 M04/M06 A3029 RMK AO2 TWR
                 VIS 1 SLP283 P0003 T10441056 =
2018-01-16 14:45 METAR KBGM 161945Z 26003KT 1/2SM -SN FZFG BKN005 OVC014 M04/M06 A3029 RMK AO2
                 TWR VIS 1 P0003 T10441056 =
2018-01-16 14:28 METAR KBGM 161928Z 21003KT 3/4SM -SN BR SCT007 OVC014 M04/M06 A3029 RMK AO2 TWR
                 VIS 1 P0002 T10441056 =
2018-01-16 14:17 METAR KBGM 161917Z 22004KT 3/4SM -SN BR SCT007 SCT012 OVC016 M04/M06 A3029 RMK
                 AO2 TWR VIS 1 P0001 T10441056 =
2018-01-16 13:53 METAR KBGM 161853Z 20004KT 3/4SM -SN BR SCT007 OVC014 M04/M06 A3029 RMK AO2 TWR
                 VIS 1 SLP283 P0002 T10441056 =
2018-01-16 13:26 METAR KBGM 161826Z 24005KT 3/4SM -SN BR SCT008 OVC015 M04/M06 A3029 RMK AO2 TWR
                 VIS 1 P0001 T10441061 =
2018-01-16 13:08 METAR KBGM 161808Z 22004KT 1SM -SN BR SCT006 BKN013 OVC022 M04/M06 A3029 RMK AO2
                 P0000 T10441056 =
2018-01-16 12:53 METAR KBGM 161753Z 21003KT 1SM -SN BR BKN008 OVC012 M04/M06 A3030 RMK AO2 SFC
                 VIS 1 1/4 SLP285 P0002 60007 T10441056 11044 21061 58014 =
2018-01-16 12:37 METAR KBGM 161737Z 21005KT 1SM -SN BR BKN008 OVC011 M04/M06 A3030 RMK AO2 SFC
                 VIS 1 1/4 P0002 T10441061 =
2018-01-16 11:53 METAR KBGM 161653Z 22006KT 1SM -SN BR FEW007 BKN013 OVC033 M04/M06 A3032 RMK AO2
                 SFC VIS 1 1/4 SLP293 P0001 T10441061 =
2018-01-16 11:29 METAR KBGM 161629Z 21008KT 1SM -SN BR FEW006 OVC018 M05/M06 A3033 RMK AO2 P0001
                 T10501061 =
2018-01-16 11:14 METAR KBGM 161614Z 23004KT 3/4SM -SN BR FEW007 OVC017 M05/M06 A3033 RMK AO2 TWR
                 VIS 1 P0001 T10501061 =
2018-01-16 11:05 METAR KBGM 161605Z 22004KT 3/4SM -SN BR VV018 M05/M06 A3033 RMK AO2 TWR VIS 1
                 P0000 T10501061 =
2018-01-16 10:53 METAR KBGM 161553Z 21006KT 1SM -SN BR FEW005 OVC021 M05/M06 A3034 RMK AO2 TWR
                 VIS 2 SLP299 P0002 T10501061 =

Support USWX by starting your Amazon purchase here.